Time;durP1;ratioP1;P1;durP2;ratioP2;P2;SDS_P1;SDS_P2;PMS_P1;PMS_P2;Temp;Humidity;BMP_temperature;BMP_pressure;BME280_temperature;BME280_humidity;BME280_pressure;Samples;Min_cycle;Max_cycle;Signal;HPM_P1;HPM_P2
2021/06/12 00:02:21;;;;;;;1.73;1.13;;;;;;;17.08;71.56;100954.69;6292683;22;20090;-79
2021/06/12 00:04:46;;;;;;;0.93;0.93;;;;;;;17.13;71.28;100973.13;6288645;22;20011;-78
2021/06/12 00:07:14;;;;;;;3.15;1.23;;;;;;;17.06;72.11;100966.03;6317035;22;20006;-77
2021/06/12 00:09:39;;;;;;;0.80;0.80;;;;;;;17.04;71.66;100968.28;6320256;22;19999;-78
2021/06/12 00:12:20;;;;;;;;;;;;;;;;;;;;;
2021/06/12 00:14:52;;;;;;;0.75;0.75;;;;;;;16.97;71.69;100961.47;6293685;22;20035;-77
2021/06/12 00:17:18;;;;;;;1.27;1.20;;;;;;;16.93;71.68;100959.28;6322267;22;20007;-76
2021/06/12 00:19:47;;;;;;;1.33;1.33;;;;;;;16.96;72.06;100962.59;6323842;22;20003;-77
2021/06/12 00:22:17;;;;;;;1.20;1.20;;;;;;;16.94;72.19;100965.66;6321535;22;19995;-76
2021/06/12 00:24:45;;;;;;;0.90;0.90;;;;;;;16.86;72.52;100958.81;6287020;22;19995;-78
2021/06/12 00:27:22;;;;;;;1.10;1.10;;;;;;;16.91;72.19;100967.06;6291825;22;20010;-78
2021/06/12 00:29:49;;;;;;;1.00;1.00;;;;;;;16.85;72.60;100962.69;6291524;22;20035;-78
2021/06/12 00:32:14;;;;;;;1.10;1.10;;;;;;;16.90;72.10;100976.47;6264590;22;20030;-77
2021/06/12 00:34:40;;;;;;;0.80;0.80;;;;;;;16.94;72.74;100976.72;6292710;22;20017;-78
2021/06/12 00:37:06;;;;;;;1.00;1.00;;;;;;;16.95;72.07;100969.22;6293587;22;20011;-77
2021/06/12 00:39:32;;;;;;;0.90;0.90;;;;;;;16.97;72.36;100980.81;6287291;22;20003;-77
2021/06/12 00:41:58;;;;;;;0.70;0.70;;;;;;;16.99;72.12;100979.41;6317416;22;20014;-78
2021/06/12 00:44:23;;;;;;;0.82;0.82;;;;;;;17.00;72.33;100981.03;6288093;22;20067;-77
2021/06/12 00:46:48;;;;;;;1.45;1.45;;;;;;;17.04;72.29;100989.56;6267106;22;20003;-77
2021/06/12 00:49:14;;;;;;;0.90;0.90;;;;;;;17.03;72.14;100985.97;6263853;22;20421;-78
2021/06/12 00:51:48;;;;;;;1.10;1.00;;;;;;;16.90;72.49;100976.47;6291304;22;20010;-78
2021/06/12 00:54:14;;;;;;;0.90;0.90;;;;;;;16.93;72.52;100986.09;6293215;22;20003;-77
2021/06/12 00:56:39;;;;;;;0.90;0.90;;;;;;;16.97;72.45;101000.13;6289337;22;20073;-75
2021/06/12 00:59:05;;;;;;;0.75;0.75;;;;;;;16.97;72.60;100997.38;6291940;22;20315;-77
2021/06/12 01:01:31;;;;;;;0.95;0.82;;;;;;;16.98;72.30;101004.56;6317716;22;20014;-78
2021/06/12 01:03:59;;;;;;;1.90;1.48;;;;;;;16.98;72.47;100999.03;6242127;22;20007;-79
2021/06/12 01:06:24;;;;;;;1.20;1.10;;;;;;;16.93;72.86;100992.44;6240470;22;20003;-78
2021/06/12 01:08:50;;;;;;;1.40;1.40;;;;;;;16.93;72.67;100997.97;6242012;22;20041;-78
2021/06/12 01:11:16;;;;;;;1.75;0.68;;;;;;;16.89;72.93;100999.69;6291804;22;20007;-76
2021/06/12 01:14:13;;;;;;;1.38;1.35;;;;;;;16.90;72.87;101003.28;6289665;22;20007;-78
2021/06/12 01:16:52;;;;;;;1.20;1.20;;;;;;;16.84;73.04;101016.28;6288911;22;20056;-76
2021/06/12 01:19:55;;;;;;;0.75;0.75;;;;;;;16.85;72.74;100995.84;6317773;22;20133;-77
2021/06/12 01:22:35;;;;;;;0.98;0.88;;;;;;;16.92;72.70;101009.31;6287959;22;19995;-77
2021/06/12 01:25:12;;;;;;;0.63;0.63;;;;;;;16.99;72.61;101011.72;6285630;22;20082;-78
2021/06/12 01:28:06;;;;;;;0.70;0.70;;;;;;;17.05;72.25;101007.78;6318791;22;20023;-78
2021/06/12 01:30:34;;;;;;;1.20;1.10;;;;;;;17.07;72.07;101014.66;6318324;22;20003;-77
2021/06/12 01:33:06;;;;;;;1.20;1.20;;;;;;;17.08;72.43;101013.56;6318054;22;20031;-79
2021/06/12 01:35:40;;;;;;;0.88;0.88;;;;;;;17.10;72.15;101002.22;6293612;22;20003;-77
2021/06/12 01:38:10;;;;;;;1.40;1.30;;;;;;;17.12;71.42;101002.72;6319765;22;20006;-79
2021/06/12 01:40:41;;;;;;;2.13;1.90;;;;;;;17.02;70.44;101003.66;6318810;22;19999;-79
2021/06/12 01:43:09;;;;;;;1.50;1.40;;;;;;;16.96;70.40;100990.22;6289734;22;20042;-79
2021/06/12 01:45:35;;;;;;;1.40;1.30;;;;;;;16.87;70.36;100993.63;6291328;22;20010;-77
2021/06/12 01:48:02;;;;;;;1.55;1.45;;;;;;;16.80;70.31;100993.13;6292961;22;20011;-78
2021/06/12 01:50:28;;;;;;;2.20;1.52;;;;;;;16.65;69.84;100983.09;6293306;22;20003;-78
2021/06/12 01:52:55;;;;;;;1.40;1.30;;;;;;;16.70;70.24;100998.78;6318630;22;20675;-76
2021/06/12 01:55:26;;;;;;;1.25;1.25;;;;;;;16.63;69.97;100990.00;6289371;22;20021;-78
2021/06/12 01:57:52;;;;;;;1.35;1.08;;;;;;;16.63;70.03;101001.06;6292376;22;20007;-74
2021/06/12 02:00:18;;;;;;;0.93;0.90;;;;;;;16.61;70.03;101000.53;6242656;22;20007;-78
2021/06/12 02:02:46;;;;;;;1.58;1.48;;;;;;;16.62;69.54;101003.00;6264570;22;20011;-78
2021/06/12 02:05:16;;;;;;;1.63;1.52;;;;;;;16.55;69.23;101003.34;6293602;22;20003;-75
2021/06/12 02:07:44;;;;;;;3.10;1.92;;;;;;;16.49;69.17;101001.75;6291909;22;20003;-78
2021/06/12 02:10:12;;;;;;;1.17;1.13;;;;;;;16.39;68.47;100993.56;6308182;22;19999;-75
2021/06/12 02:12:42;;;;;;;1.08;1.08;;;;;;;16.32;68.61;100999.44;6320665;22;19999;-76
2021/06/12 02:15:14;;;;;;;2.10;1.40;;;;;;;16.21;68.73;100993.19;6319323;22;19995;-77
2021/06/12 02:17:42;;;;;;;1.58;1.48;;;;;;;16.05;68.27;100988.94;6289634;22;20003;-77
2021/06/12 02:20:17;;;;;;;0.88;0.80;;;;;;;16.01;68.56;100998.91;6293965;22;20086;-77
2021/06/12 02:22:46;;;;;;;1.02;1.02;;;;;;;15.99;68.75;101009.38;6319758;22;19995;-76
2021/06/12 02:25:13;;;;;;;0.95;0.95;;;;;;;15.82;68.48;101007.84;6320935;22;19999;-76
2021/06/12 02:28:01;;;;;;;1.58;1.48;;;;;;;15.63;69.08;100999.41;6293430;22;20014;-78
2021/06/12 02:30:32;;;;;;;1.48;1.38;;;;;;;15.51;69.22;100996.19;6291510;22;20011;-76
2021/06/12 02:33:03;;;;;;;2.17;1.40;;;;;;;15.38;69.80;101003.16;6322276;22;20003;-77
2021/06/12 02:35:29;;;;;;;1.55;1.00;;;;;;;15.25;69.86;101003.78;6294833;22;19999;-78
2021/06/12 02:37:56;;;;;;;1.08;1.08;;;;;;;15.13;70.02;101002.19;6319795;22;20098;-77
2021/06/12 02:40:22;;;;;;;1.65;1.50;;;;;;;14.99;70.18;100992.88;6291091;22;20021;-77
2021/06/12 02:42:47;;;;;;;1.42;1.33;;;;;;;14.88;70.23;100999.53;6241568;22;20008;-77
2021/06/12 02:45:13;;;;;;;1.58;1.17;;;;;;;14.80;70.45;101012.75;6316445;22;20003;-75
2021/06/12 02:47:54;;;;;;;1.10;1.08;;;;;;;14.70;70.75;101021.06;6316675;22;20047;-76
2021/06/12 02:50:24;;;;;;;1.60;1.50;;;;;;;14.61;70.97;101011.69;6315737;22;19999;-75
2021/06/12 02:53:12;;;;;;;2.45;0.90;;;;;;;14.58;70.86;101021.31;6317178;22;20080;-75
2021/06/12 02:55:46;;;;;;;1.20;1.10;;;;;;;14.51;71.67;101011.72;6318209;22;20124;-76
2021/06/12 02:58:15;;;;;;;1.50;1.40;;;;;;;14.34;71.51;101012.00;6298319;22;20063;-76
2021/06/12 03:00:43;;;;;;;2.95;1.55;;;;;;;14.35;71.55;101008.97;6316180;22;20026;-74
2021/06/12 03:03:12;;;;;;;0.85;0.85;;;;;;;14.34;72.13;101017.50;6291715;22;20003;-75
2021/06/12 03:05:43;;;;;;;1.20;1.10;;;;;;;14.25;72.02;101009.84;6289101;22;20004;-75
2021/06/12 03:08:12;;;;;;;1.58;1.48;;;;;;;14.24;71.88;101024.69;6289840;22;20065;-76
2021/06/12 03:10:39;;;;;;;1.83;1.73;;;;;;;14.17;72.48;101020.56;6289542;22;20069;-75
2021/06/12 03:13:07;;;;;;;1.67;1.58;;;;;;;14.11;72.09;101020.56;6265004;22;20003;-76
2021/06/12 03:15:34;;;;;;;1.55;1.55;;;;;;;14.05;72.32;101032.66;6292327;22;19999;-76
2021/06/12 03:18:00;;;;;;;4.15;1.60;;;;;;;13.96;72.82;101015.06;6261812;22;20018;-76
2021/06/12 03:20:26;;;;;;;1.63;1.52;;;;;;;13.91;73.01;101010.38;6316440;22;19999;-78
2021/06/12 03:22:53;;;;;;;1.63;1.52;;;;;;;13.88;72.72;101021.91;6292799;22;20003;-78
2021/06/12 03:25:23;;;;;;;1.80;1.70;;;;;;;13.82;72.95;101023.03;6287989;22;20071;-77
2021/06/12 03:27:51;;;;;;;1.75;1.65;;;;;;;13.74;73.52;101018.91;6292194;22;20003;-77
2021/06/12 03:30:17;;;;;;;1.00;1.00;;;;;;;13.71;73.01;101022.19;6290186;22;20006;-77
2021/06/12 03:32:48;;;;;;;2.65;1.73;;;;;;;13.65;73.48;101016.94;6264719;22;20010;-75
2021/06/12 03:35:17;;;;;;;3.08;1.60;;;;;;;13.66;73.52;101018.59;6318551;22;19991;-74
2021/06/12 03:37:46;;;;;;;2.65;1.83;;;;;;;13.55;74.05;101007.59;6288939;22;20087;-75
2021/06/12 03:40:15;;;;;;;3.03;1.77;;;;;;;13.56;73.54;101016.66;6317887;22;20026;-75
2021/06/12 03:43:10;;;;;;;;;;;;;;;;;;;;;
2021/06/12 03:45:54;;;;;;;2.17;2.08;;;;;;;13.27;74.11;101006.94;6316425;22;20038;-76
2021/06/12 03:48:24;;;;;;;2.47;2.13;;;;;;;13.20;74.47;100994.53;6294386;22;20007;-76
2021/06/12 03:50:52;;;;;;;1.77;1.67;;;;;;;13.32;74.34;101030.84;6320094;22;20003;-76
2021/06/12 03:53:30;;;;;;;3.67;2.45;;;;;;;13.28;74.92;101041.53;6292258;22;19999;-76
2021/06/12 03:56:01;;;;;;;8.68;2.53;;;;;;;13.20;75.15;101028.34;6320057;22;20014;-77
2021/06/12 03:58:27;;;;;;;6.13;3.08;;;;;;;13.21;75.36;101032.72;6294844;22;20060;-76
2021/06/12 04:00:53;;;;;;;3.08;2.85;;;;;;;13.20;75.76;101027.50;6268894;22;20426;-76
2021/06/12 04:03:18;;;;;;;3.70;2.67;;;;;;;13.08;76.17;101023.09;6320707;22;20018;-77
2021/06/12 04:05:44;;;;;;;5.55;2.78;;;;;;;13.13;75.88;101029.66;6295556;22;20022;-77
2021/06/12 04:08:10;;;;;;;4.05;2.67;;;;;;;13.04;76.38;101024.72;6319920;22;19999;-76
2021/06/12 04:10:36;;;;;;;4.45;3.13;;;;;;;13.08;76.07;101030.47;6289909;22;20010;-77
2021/06/12 04:13:22;;;;;;;4.60;3.05;;;;;;;13.04;76.27;101027.44;6293901;22;20023;-77
2021/06/12 04:15:49;;;;;;;5.72;3.17;;;;;;;12.95;77.00;101012.56;6294426;22;20038;-75
2021/06/12 04:18:15;;;;;;;5.03;3.22;;;;;;;12.99;76.78;101024.66;6289119;22;20025;-77
2021/06/12 04:20:40;;;;;;;6.10;4.15;;;;;;;12.98;77.40;101025.78;6291797;22;20007;-77
2021/06/12 04:23:07;;;;;;;7.07;3.30;;;;;;;12.80;77.44;100996.03;6318630;22;20050;-78
2021/06/12 04:25:33;;;;;;;4.82;3.13;;;;;;;12.98;76.67;101028.53;6321697;22;19995;-77
2021/06/12 04:27:58;;;;;;;6.05;2.83;;;;;;;12.90;77.15;101026.28;6321063;22;20440;-77
2021/06/12 04:30:24;;;;;;;6.45;3.35;;;;;;;12.93;77.22;101028.50;6293750;22;20055;-76
2021/06/12 04:32:50;;;;;;;10.35;3.40;;;;;;;12.93;77.34;101029.31;6268525;22;20015;-75
2021/06/12 04:35:16;;;;;;;10.30;3.63;;;;;;;12.92;77.70;101027.69;6268299;22;20007;-76
2021/06/12 04:37:43;;;;;;;14.57;4.70;;;;;;;12.90;77.50;101029.03;6320891;22;20035;-77
2021/06/12 04:40:11;;;;;;;6.13;3.80;;;;;;;12.82;77.57;101021.28;6292555;22;20003;-75
2021/06/12 04:42:37;;;;;;;14.68;4.07;;;;;;;12.88;77.85;101036.72;6294555;22;20037;-76
2021/06/12 04:45:07;;;;;;;10.55;4.93;;;;;;;12.91;77.52;101041.66;6316927;22;20410;-75
2021/06/12 04:47:33;;;;;;;5.63;3.45;;;;;;;12.95;77.40;101041.94;6293523;22;20038;-76
2021/06/12 04:49:58;;;;;;;7.70;4.18;;;;;;;12.96;77.79;101049.91;6319793;22;20010;-74
2021/06/12 04:52:24;;;;;;;12.13;4.35;;;;;;;12.97;77.86;101046.09;6268583;22;20007;-74
2021/06/12 04:54:51;;;;;;;6.95;3.80;;;;;;;12.98;78.20;101050.50;6292890;22;20064;-74
2021/06/12 04:57:17;;;;;;;5.65;4.30;;;;;;;12.97;77.57;101048.81;6321112;22;20010;-74
2021/06/12 04:59:42;;;;;;;10.30;4.53;;;;;;;13.01;77.31;101058.19;6297994;22;20003;-74
2021/06/12 05:02:08;;;;;;;5.80;3.90;;;;;;;12.99;77.47;101049.38;6295244;22;20011;-75
2021/06/12 05:04:34;;;;;;;9.50;5.20;;;;;;;13.02;77.57;101048.84;6237904;22;20022;-74
2021/06/12 05:06:59;;;;;;;9.75;4.90;;;;;;;13.02;77.49;101045.28;6269761;22;20007;-77
2021/06/12 05:09:25;;;;;;;9.68;4.95;;;;;;;13.09;77.43;101046.69;6294449;22;20029;-76
2021/06/12 05:11:50;;;;;;;10.43;4.78;;;;;;;13.04;78.13;101043.94;6291778;22;20045;-76
2021/06/12 05:14:17;;;;;;;14.10;5.15;;;;;;;13.15;77.38;101065.94;6266959;22;20112;-76
2021/06/12 05:17:12;;;;;;;9.20;4.47;;;;;;;13.25;77.48;101064.03;6319580;22;20495;-78
2021/06/12 05:19:37;;;;;;;7.18;5.22;;;;;;;13.18;77.69;101051.66;6291311;22;20011;-77
2021/06/12 05:22:03;;;;;;;7.88;4.53;;;;;;;13.17;77.45;101036.28;6320046;22;20078;-76
2021/06/12 05:24:28;;;;;;;6.47;5.30;;;;;;;13.23;77.48;101054.44;6292264;22;20014;-78
2021/06/12 05:26:54;;;;;;;7.88;4.88;;;;;;;13.38;77.78;101071.00;6292704;22;20394;-76
2021/06/12 05:29:20;;;;;;;8.57;4.63;;;;;;;13.43;77.58;101071.03;6321084;22;20025;-76
2021/06/12 05:31:45;;;;;;;10.68;5.55;;;;;;;13.48;77.31;101070.22;6292577;22;19999;-76
2021/06/12 05:34:11;;;;;;;8.10;5.22;;;;;;;13.50;77.05;101059.78;6292419;22;20011;-75
2021/06/12 05:36:37;;;;;;;6.20;4.97;;;;;;;13.52;76.95;101062.25;6318375;22;19999;-75
2021/06/12 05:39:15;;;;;;;;;;;;;;;;;;;;;
2021/06/12 05:41:41;;;;;;;15.60;5.25;;;;;;;13.73;75.95;101080.44;6319266;22;20441;-75
2021/06/12 05:44:07;;;;;;;7.05;4.38;;;;;;;13.83;76.48;101085.16;6290740;22;20023;-74
2021/06/12 05:46:33;;;;;;;5.78;4.45;;;;;;;13.81;76.06;101070.84;6290430;22;20063;-74
2021/06/12 05:49:00;;;;;;;8.57;5.72;;;;;;;13.98;76.20;101089.84;6319931;22;20033;-76
2021/06/12 05:51:28;;;;;;;13.90;5.47;;;;;;;14.06;75.56;101094.81;6291157;22;20019;-75
2021/06/12 05:53:54;;;;;;;5.90;4.70;;;;;;;14.16;75.16;101093.16;6317662;22;20002;-75
2021/06/12 05:56:20;;;;;;;9.15;5.82;;;;;;;14.23;75.18;101094.53;6290993;22;20470;-75
2021/06/12 05:58:46;;;;;;;11.73;6.88;;;;;;;14.26;75.07;101093.16;6316950;22;20059;-75
2021/06/12 06:01:12;;;;;;;9.45;5.75;;;;;;;14.42;75.59;101103.06;6287400;22;20010;-75
2021/06/12 06:03:38;;;;;;;9.30;6.22;;;;;;;14.54;75.31;101105.53;6292396;22;20064;-76
2021/06/12 06:06:08;;;;;;;10.85;7.03;;;;;;;14.61;74.75;101097.88;6317763;22;20038;-74
2021/06/12 06:08:57;;;;;;;7.07;6.13;;;;;;;14.76;74.77;101105.31;6290950;22;20295;-74
2021/06/12 06:11:22;;;;;;;9.85;6.47;;;;;;;14.92;74.65;101116.28;6291657;22;20027;-75
2021/06/12 06:13:48;;;;;;;10.90;6.18;;;;;;;14.95;73.84;101104.69;6317224;22;20010;-73
2021/06/12 06:16:14;;;;;;;10.02;6.63;;;;;;;15.13;74.03;101123.38;6290109;22;20006;-75
2021/06/12 06:18:40;;;;;;;8.38;6.28;;;;;;;15.26;73.32;101133.00;6292146;22;20011;-76
2021/06/12 06:21:07;;;;;;;8.73;7.18;;;;;;;15.34;73.23;101117.81;6284329;22;20003;-76
2021/06/12 06:23:33;;;;;;;11.32;6.72;;;;;;;15.52;73.22;101142.00;6319997;22;20006;-76
2021/06/12 06:26:00;;;;;;;14.07;7.50;;;;;;;15.64;72.37;101132.59;6319435;22;20009;-75
2021/06/12 06:28:26;;;;;;;10.18;6.47;;;;;;;15.79;72.47;101135.28;6266082;22;20011;-76
2021/06/12 06:30:51;;;;;;;5.28;4.97;;;;;;;15.97;72.06;101135.72;6288275;22;20007;-74
2021/06/12 06:33:17;;;;;;;9.23;5.70;;;;;;;16.18;71.58;101141.97;6291455;22;20087;-77
2021/06/12 06:35:45;;;;;;;17.75;6.95;;;;;;;16.28;70.34;101141.03;6293669;22;20003;-76
2021/06/12 06:38:29;;;;;;;10.55;7.13;;;;;;;16.34;69.78;101139.88;6320018;22;20041;-77
2021/06/12 06:40:55;;;;;;;14.40;7.53;;;;;;;16.28;69.09;101138.28;6294501;22;20014;-75
2021/06/12 06:43:20;;;;;;;10.80;7.50;;;;;;;16.33;69.41;101149.31;6267685;22;20102;-76
2021/06/12 06:45:46;;;;;;;8.98;7.10;;;;;;;16.34;69.49;101146.25;6288596;22;19999;-76
2021/06/12 06:48:13;;;;;;;10.68;6.90;;;;;;;16.43;68.97;101148.38;6320698;22;20011;-76
2021/06/12 06:50:42;;;;;;;12.55;8.30;;;;;;;16.35;68.50;101141.53;6266818;22;20433;-81
2021/06/12 06:53:10;;;;;;;10.63;7.88;;;;;;;16.39;68.88;101150.91;6296938;22;20029;-81
2021/06/12 06:55:36;;;;;;;8.95;7.43;;;;;;;16.47;68.91;101160.50;6322134;22;20429;-82
2021/06/12 06:58:21;;;;;;;13.00;7.80;;;;;;;16.46;68.59;101150.59;6298561;22;20047;-79
2021/06/12 07:00:58;;;;;;;9.25;7.18;;;;;;;16.49;68.86;101148.06;6298588;22;20018;-80
2021/06/12 07:03:24;;;;;;;9.65;6.55;;;;;;;16.62;68.04;101156.78;6270648;22;20007;-79
2021/06/12 07:05:50;;;;;;;11.82;5.85;;;;;;;16.72;68.31;101142.91;6320395;22;19992;-78
2021/06/12 07:08:28;;;;;;;;;;;;;;;;;;;;;
2021/06/12 07:11:09;;;;;;;;;;;;;;;;;;;;;
2021/06/12 07:13:38;;;;;;;12.13;5.75;;;;;;;16.93;67.23;101152.66;6297423;22;20049;-81
2021/06/12 07:16:04;;;;;;;6.25;5.22;;;;;;;17.10;66.81;101162.47;6293593;22;20003;-81
2021/06/12 07:18:40;;;;;;;;;;;;;;;;;;;;;
2021/06/12 07:21:06;;;;;;;12.93;6.13;;;;;;;17.21;66.19;101150.16;6321484;22;19999;-80
2021/06/12 07:23:35;;;;;;;6.93;5.68;;;;;;;17.39;66.04;101169.88;6293819;22;20043;-74
2021/06/12 07:26:08;;;;;;;6.45;5.95;;;;;;;17.39;66.21;101153.28;6290221;22;20003;-77
2021/06/12 07:28:33;;;;;;;6.65;5.63;;;;;;;17.57;65.64;101171.88;6319035;22;20000;-76
2021/06/12 07:30:59;;;;;;;6.95;6.25;;;;;;;17.50;64.93;101154.81;6288967;22;20030;-74
2021/06/12 07:33:24;;;;;;;12.32;4.93;;;;;;;17.73;65.02;101174.47;6318836;22;20034;-78
2021/06/12 07:35:53;;;;;;;10.95;5.32;;;;;;;17.80;64.68;101170.22;6292827;22;19999;-74
2021/06/12 07:38:19;;;;;;;5.88;4.88;;;;;;;17.80;64.41;101156.38;6289695;22;20007;-73
2021/06/12 07:40:44;;;;;;;6.18;5.55;;;;;;;18.03;64.07;101177.97;6288451;22;20010;-74
2021/06/12 07:43:26;;;;;;;6.15;5.47;;;;;;;18.15;64.22;101164.53;6290765;22;20019;-72
2021/06/12 07:46:17;;;;;;;9.35;5.55;;;;;;;18.23;63.54;101161.06;6284725;22;20018;-72
2021/06/12 07:48:43;;;;;;;9.20;4.95;;;;;;;18.25;63.50;101161.59;6290709;22;20006;-72
2021/06/12 07:51:09;;;;;;;5.53;5.13;;;;;;;18.33;62.85;101162.03;6286573;22;20093;-73
2021/06/12 07:53:35;;;;;;;7.28;4.07;;;;;;;18.40;63.47;101154.16;6264245;22;20011;-72
2021/06/12 07:56:00;;;;;;;7.10;4.40;;;;;;;18.62;62.58;101165.44;6288295;22;19999;-73
2021/06/12 07:58:33;;;;;;;6.43;4.10;;;;;;;18.69;62.58;101167.81;6313125;22;20269;-71
2021/06/12 08:00:58;;;;;;;3.22;3.00;;;;;;;18.90;62.25;101164.72;6312337;22;20018;-74
2021/06/12 08:03:24;;;;;;;6.03;4.22;;;;;;;19.09;60.90;101172.97;6288278;22;20003;-71
2021/06/12 08:05:50;;;;;;;3.78;3.47;;;;;;;19.11;61.25;101156.84;6316946;22;20014;-72
2021/06/12 08:08:16;;;;;;;4.25;3.63;;;;;;;19.42;60.19;101170.13;6285995;22;19995;-72
2021/06/12 08:10:41;;;;;;;5.28;2.35;;;;;;;19.62;61.26;101171.66;6286685;22;20019;-72
2021/06/12 08:13:07;;;;;;;2.05;1.92;;;;;;;19.83;60.44;101155.41;6309755;22;20022;-73
2021/06/12 08:15:38;;;;;;;2.67;2.47;;;;;;;20.09;59.47;101168.75;6286840;22;20056;-72
2021/06/12 08:18:06;;;;;;;2.53;1.92;;;;;;;20.30;59.27;101178.25;6310225;22;20018;-73
2021/06/12 08:20:42;;;;;;;;;;;;;;;;;;;;;
2021/06/12 08:23:10;;;;;;;2.60;2.42;;;;;;;20.72;58.38;101166.97;6313073;22;20022;-73
2021/06/12 08:25:36;;;;;;;2.58;2.38;;;;;;;20.72;56.22;101159.47;6260299;22;20134;-73
2021/06/12 08:28:05;;;;;;;2.42;2.20;;;;;;;20.84;56.70;101160.84;6312943;22;20003;-71
2021/06/12 08:30:36;;;;;;;1.88;1.77;;;;;;;20.89;56.76;101150.41;6312491;22;20467;-73
2021/06/12 08:33:07;;;;;;;3.45;2.00;;;;;;;21.05;56.22;101161.94;6287458;22;20003;-72
2021/06/12 08:35:38;;;;;;;1.90;1.80;;;;;;;21.13;56.13;101157.56;6287815;22;19999;-72
2021/06/12 08:38:07;;;;;;;1.52;1.20;;;;;;;21.32;55.66;101164.84;6311011;22;20007;-71
2021/06/12 08:40:50;;;;;;;4.18;1.60;;;;;;;21.41;55.02;101162.91;6310461;22;19995;-74
2021/06/12 08:43:26;;;;;;;1.77;1.50;;;;;;;21.48;53.49;101168.00;6315095;22;20019;-72
2021/06/12 08:45:53;;;;;;;4.18;1.75;;;;;;;21.53;53.15;101177.06;6276092;22;20022;-73
2021/06/12 08:48:20;;;;;;;2.55;1.25;;;;;;;21.69;52.92;101187.75;6286530;22;20018;-72
2021/06/12 08:50:46;;;;;;;1.83;1.38;;;;;;;21.81;52.56;101192.69;6287909;22;20499;-72
2021/06/12 08:53:12;;;;;;;1.13;1.02;;;;;;;21.85;52.21;101182.56;6312922;22;20027;-70
2021/06/12 08:55:43;;;;;;;1.20;1.10;;;;;;;21.99;52.52;101179.63;6288933;22;20406;-72
2021/06/12 08:58:09;;;;;;;1.83;1.13;;;;;;;22.19;51.79;101190.13;6317361;22;20018;-71
2021/06/12 09:00:38;;;;;;;1.98;1.02;;;;;;;22.26;50.23;101165.38;6311018;22;19999;-72
2021/06/12 09:03:04;;;;;;;1.38;1.27;;;;;;;22.46;50.20;101179.84;6289396;22;20006;-72
2021/06/12 09:05:52;;;;;;;1.20;1.20;;;;;;;22.59;50.15;101184.44;6285856;22;20011;-73
2021/06/12 09:08:25;;;;;;;1.40;1.30;;;;;;;22.64;49.85;101197.38;6315279;22;20485;-72
2021/06/12 09:11:06;;;;;;;3.13;1.40;;;;;;;22.77;49.76;101199.16;6289589;22;20007;-72
2021/06/12 09:13:54;;;;;;;0.80;0.80;;;;;;;23.05;49.75;101195.97;6318501;22;19998;-74
2021/06/12 09:16:40;;;;;;;1.42;1.10;;;;;;;23.17;48.63;101204.53;6287895;22;20004;-72
2021/06/12 09:19:13;;;;;;;4.38;1.15;;;;;;;23.33;48.37;101201.16;6321544;22;20184;-73
2021/06/12 09:21:43;;;;;;;4.10;0.70;;;;;;;23.35;47.24;101210.03;6317965;22;20056;-73
2021/06/12 09:24:42;;;;;;;4.55;1.00;;;;;;;23.33;46.84;101206.75;6289316;22;20534;-72
2021/06/12 09:27:14;;;;;;;2.35;1.20;;;;;;;23.27;46.46;101213.66;6279434;22;20015;-73
2021/06/12 09:29:42;;;;;;;1.67;0.50;;;;;;;23.32;46.20;101216.28;6285297;22;20003;-73
2021/06/12 09:32:26;;;;;;;1.27;0.80;;;;;;;23.31;45.24;101203.47;6288431;22;20003;-71
2021/06/12 09:35:02;;;;;;;1.85;0.90;;;;;;;23.27;46.25;101202.50;6313146;22;20011;-71
2021/06/12 09:37:28;;;;;;;1.17;0.95;;;;;;;23.46;46.21;101204.91;6311980;22;19999;-71
2021/06/12 09:40:10;;;;;;;2.53;1.17;;;;;;;23.58;45.71;101212.56;6311348;22;19999;-70
2021/06/12 09:42:52;;;;;;;;;;;;;;;;;;;;;
2021/06/12 09:45:36;;;;;;;1.63;0.80;;;;;;;24.02;45.85;101221.53;6310009;22;20026;-71
2021/06/12 09:48:08;;;;;;;1.65;1.00;;;;;;;24.08;44.28;101220.19;6283658;22;20003;-70
2021/06/12 09:50:43;;;;;;;1.58;1.48;;;;;;;24.04;43.56;101208.88;6306758;22;20046;-72
2021/06/12 09:53:16;;;;;;;;;;;;;;;24.36;42.84;101230.84;6305646;22;20018;-72
2021/06/12 09:55:42;;;;;;;5.90;0.98;;;;;;;24.23;43.50;101227.97;6309810;22;20219;-73
2021/06/12 09:58:10;;;;;;;1.90;1.00;;;;;;;24.23;42.76;101222.38;6310641;22;20006;-72
2021/06/12 10:00:46;;;;;;;5.90;1.10;;;;;;;24.39;43.25;101219.78;6311916;22;20023;-73
2021/06/12 10:03:21;;;;;;;;;;;;;;;24.89;42.20;101232.03;6310639;22;20363;-72
2021/06/12 10:05:48;;;;;;;1.27;1.00;;;;;;;25.11;43.17;101229.19;6310178;22;20409;-72
2021/06/12 10:08:23;;;;;;;3.15;0.98;;;;;;;25.68;42.44;101233.97;6311630;22;20306;-73
2021/06/12 10:10:52;;;;;;;0.88;0.60;;;;;;;26.47;41.40;101242.06;6283098;22;19999;-73
2021/06/12 10:13:21;;;;;;;1.40;0.63;;;;;;;27.31;41.41;101233.97;6283245;22;20015;-72
2021/06/12 10:15:47;;;;;;;2.08;1.45;;;;;;;28.17;39.22;101243.75;6308926;22;20010;-71
2021/06/12 10:18:19;;;;;;;2.25;0.85;;;;;;;28.71;37.17;101233.66;6300263;22;20003;-73
2021/06/12 10:20:45;;;;;;;1.15;0.60;;;;;;;29.57;36.81;101237.25;6278906;22;20414;-72
2021/06/12 10:23:11;;;;;;;1.88;1.00;;;;;;;30.28;36.13;101242.38;6278628;22;20010;-72
2021/06/12 10:25:40;;;;;;;1.85;0.88;;;;;;;30.17;34.56;101241.41;6308757;22;20338;-71
2021/06/12 10:28:08;;;;;;;0.85;0.60;;;;;;;30.09;34.58;101241.31;6257392;22;20044;-71
2021/06/12 10:30:34;;;;;;;0.60;0.47;;;;;;;30.79;35.82;101233.38;6308948;22;20003;-71
2021/06/12 10:33:01;;;;;;;2.55;0.52;;;;;;;31.47;31.52;101233.25;6302903;22;20433;-73
2021/06/12 10:35:29;;;;;;;1.88;0.40;;;;;;;32.03;33.15;101236.91;6283463;22;20094;-71
2021/06/12 10:38:05;;;;;;;0.40;0.40;;;;;;;32.98;32.86;101239.00;6308778;22;20000;-71
2021/06/12 10:40:57;;;;;;;1.73;0.70;;;;;;;33.56;28.95;101262.56;6283702;22;20011;-70
2021/06/12 10:43:26;;;;;;;5.85;0.82;;;;;;;33.70;29.48;101260.94;6299636;22;20015;-71
2021/06/12 10:46:10;;;;;;;3.03;1.33;;;;;;;33.26;26.74;101259.31;6284629;22;20010;-71
2021/06/12 10:48:41;;;;;;;0.70;0.50;;;;;;;32.49;28.19;101246.06;6307943;22;20030;-73
2021/06/12 10:51:12;;;;;;;1.30;0.90;;;;;;;32.40;28.70;101246.44;6279588;22;20035;-73
2021/06/12 10:53:41;;;;;;;0.63;0.52;;;;;;;32.72;29.50;101242.97;6309329;22;20014;-73
2021/06/12 10:56:08;;;;;;;0.40;0.40;;;;;;;34.05;30.71;101239.44;6304605;22;20033;-72
2021/06/12 10:58:34;;;;;;;1.42;0.70;;;;;;;35.51;26.68;101261.06;6307246;22;20003;-72
2021/06/12 11:01:06;;;;;;;4.10;0.47;;;;;;;36.68;26.63;101258.22;6283170;22;20086;-73
2021/06/12 11:04:20;;;;;;;1.48;0.60;;;;;;;38.01;25.19;101254.53;6311751;22;20010;-73
2021/06/12 11:06:55;;;;;;;3.10;0.70;;;;;;;37.60;21.61;101247.91;6283124;22;20003;-72
2021/06/12 11:09:29;;;;;;;1.00;0.55;;;;;;;37.46;22.46;101259.56;6283034;22;20003;-71
2021/06/12 11:12:16;;;;;;;0.30;0.30;;;;;;;37.53;21.91;101256.59;6315925;22;19999;-77
2021/06/12 11:14:55;;;;;;;2.03;0.90;;;;;;;37.37;22.80;101258.06;6312379;22;20006;-76
2021/06/12 11:17:23;;;;;;;1.30;0.35;;;;;;;36.67;23.01;101255.81;6317380;22;20030;-77
2021/06/12 11:20:17;;;;;;;1.17;0.63;;;;;;;36.64;22.88;101257.47;6314915;22;19999;-76
2021/06/12 11:23:07;;;;;;;1.27;0.65;;;;;;;35.67;22.30;101252.00;6282148;22;20029;-75
2021/06/12 11:25:35;;;;;;;2.63;1.08;;;;;;;34.91;22.75;101258.22;6317647;22;20472;-77
2021/06/12 11:28:27;;;;;;;1.23;0.60;;;;;;;35.50;24.57;101260.28;6297933;22;19999;-76
2021/06/12 11:31:14;;;;;;;0.52;0.40;;;;;;;36.47;24.53;101249.97;6322691;22;20048;-76
2021/06/12 11:33:39;;;;;;;0.50;0.40;;;;;;;37.40;23.77;101244.19;6299670;22;20003;-77
2021/06/12 11:36:05;;;;;;;0.95;0.75;;;;;;;37.92;22.90;101246.53;6296904;22;20011;-77
2021/06/12 11:38:33;;;;;;;1.55;0.60;;;;;;;38.41;21.27;101261.09;6267484;22;20098;-77
2021/06/12 11:41:11;;;;;;;0.68;0.57;;;;;;;38.16;21.70;101261.56;6315727;22;20010;-74
2021/06/12 11:43:50;;;;;;;0.32;0.17;;;;;;;39.36;22.55;101249.19;6284967;22;20035;-73
2021/06/12 11:46:44;;;;;;;;;;;;;;;;;;;;;
2021/06/12 11:50:09;;;;;;;3.63;0.35;;;;;;;40.72;17.93;101261.03;6317308;22;20023;-75
2021/06/12 11:57:08;;;;;;;;;;;;;;;;;;;;;
2021/06/12 12:00:28;;;;;;;;;;;;;;;;;;;;;
2021/06/12 12:14:26;;;;;;;;;;;;;;;;;;;;;
2021/06/12 12:21:26;;;;;;;;;;;;;;;;;;;;;